Time;durP1;ratioP1;P1;durP2;ratioP2;P2;SDS_P1;SDS_P2;PMS_P1;PMS_P2;Temp;Humidity;BMP_temperature;BMP_pressure;BME280_temperature;BME280_humidity;BME280_pressure;Samples;Min_cycle;Max_cycle;Signal;HPM_P1;HPM_P2
2023/06/23 00:01:06;;;;;;;7.17;6.77;;;22.30;99.90;;;;;;5031434;28;20507;-60
2023/06/23 00:03:32;;;;;;;6.90;6.50;;;22.30;99.90;;;;;;5037155;28;20198;-60
2023/06/23 00:06:00;;;;;;;6.33;5.90;;;22.30;99.90;;;;;;5034347;28;20432;-60
2023/06/23 00:08:26;;;;;;;6.43;6.00;;;22.20;99.90;;;;;;5052262;28;20173;-60
2023/06/23 00:10:51;;;;;;;5.77;5.37;;;22.20;99.90;;;;;;5053287;28;20424;-60
2023/06/23 00:13:19;;;;;;;6.07;5.67;;;22.10;99.90;;;;;;5042607;28;20432;-60
2023/06/23 00:15:45;;;;;;;6.03;5.63;;;21.90;99.90;;;;;;5055706;28;20166;-60
2023/06/23 00:18:11;;;;;;;6.70;6.20;;;21.90;99.90;;;;;;5053862;28;20423;-60
2023/06/23 00:20:37;;;;;;;7.30;6.80;;;21.70;99.90;;;;;;5054472;28;20173;-60
2023/06/23 00:23:03;;;;;;;8.23;7.63;;;21.70;99.90;;;;;;5054874;28;20458;-60
2023/06/23 00:25:28;;;;;;;7.00;6.60;;;21.60;99.90;;;;;;5047139;28;20276;-60
2023/06/23 00:27:54;;;;;;;7.30;6.80;;;21.50;99.90;;;;;;5037630;28;20513;-60
2023/06/23 00:30:20;;;;;;;7.37;6.80;;;21.30;99.90;;;;;;5036722;28;20171;-60
2023/06/23 00:32:46;;;;;;;8.00;7.50;;;21.10;99.90;;;;;;5044150;28;20196;-60
2023/06/23 00:35:15;;;;;;;7.60;7.10;;;21.20;99.90;;;;;;5053957;28;20272;-60
2023/06/23 00:37:41;;;;;;;6.63;6.13;;;21.30;99.90;;;;;;5047468;28;20262;-60
2023/06/23 00:40:10;;;;;;;7.57;7.07;;;21.40;99.90;;;;;;5049074;28;20464;-60
2023/06/23 00:42:46;;;;;;;6.97;6.47;;;21.40;99.90;;;;;;5053623;28;20455;-61
2023/06/23 00:45:13;;;;;;;6.60;6.20;;;21.50;99.90;;;;;;5050719;28;20448;-60
2023/06/23 00:47:43;;;;;;;6.73;6.30;;;21.50;99.90;;;;;;5055180;28;20406;-60
2023/06/23 00:50:18;;;;;;;6.73;6.33;;;21.60;99.90;;;;;;5050291;28;20435;-60
2023/06/23 00:52:49;;;;;;;7.27;6.77;;;21.60;99.90;;;;;;5052784;28;20463;-60
2023/06/23 00:55:20;;;;;;;7.20;6.70;;;21.60;99.90;;;;;;5051818;28;20479;-60
2023/06/23 00:57:47;;;;;;;7.27;6.77;;;21.60;99.90;;;;;;5038274;28;20447;-60
2023/06/23 01:00:18;;;;;;;8.13;7.53;;;21.60;99.90;;;;;;5034245;28;20425;-60
2023/06/23 01:02:52;;;;;;;6.90;6.40;;;21.50;99.90;;;;;;5051744;28;20499;-60
2023/06/23 01:05:32;;;;;;;7.40;6.90;;;21.50;99.90;;;;;;5053994;28;20489;-60
2023/06/23 01:08:18;;;;;;;6.90;6.40;;;21.60;99.90;;;;;;5047132;28;20942;-60
2023/06/23 01:11:02;;;;;;;7.10;6.60;;;21.60;99.90;;;;;;5044641;28;20431;-60
2023/06/23 01:13:52;;;;;;;7.03;6.53;;;21.60;99.90;;;;;;5049003;28;20464;-60
2023/06/23 01:16:27;;;;;;;7.03;6.63;;;21.60;99.90;;;;;;5049274;28;20439;-60
2023/06/23 01:19:25;;;;;;;7.03;6.63;;;21.60;99.90;;;;;;5041214;28;20435;-60
2023/06/23 01:22:15;;;;;;;6.80;6.40;;;21.60;99.90;;;;;;5040067;28;20420;-60
2023/06/23 01:24:50;;;;;;;6.97;6.47;;;21.50;99.90;;;;;;5039477;28;20425;-60
2023/06/23 01:27:28;;;;;;;6.70;6.30;;;21.60;99.90;;;;;;5044520;28;20459;-60
2023/06/23 01:29:56;;;;;;;7.10;6.70;;;21.60;99.90;;;;;;5050718;28;20420;-60
2023/06/23 01:32:28;;;;;;;7.40;6.90;;;21.70;99.90;;;;;;5041403;28;20463;-60
2023/06/23 01:35:03;;;;;;;7.10;6.70;;;21.60;99.90;;;;;;5034503;28;20428;-60
2023/06/23 01:37:36;;;;;;;6.40;5.93;;;21.70;99.90;;;;;;5047137;28;20434;-60
2023/06/23 01:40:13;;;;;;;8.37;6.20;;;21.60;99.90;;;;;;5046550;28;20475;-60
2023/06/23 01:42:44;;;;;;;6.60;6.20;;;21.60;99.90;;;;;;5033511;28;20905;-60
2023/06/23 01:45:13;;;;;;;7.40;6.90;;;21.50;99.90;;;;;;5033566;28;20413;-60
2023/06/23 01:47:42;;;;;;;6.47;6.07;;;21.50;99.90;;;;;;5039934;28;20425;-60
2023/06/23 01:50:13;;;;;;;7.13;6.63;;;21.50;99.90;;;;;;5037474;28;20432;-60
2023/06/23 01:52:40;;;;;;;7.20;6.70;;;21.50;99.90;;;;;;5034127;28;20393;-60
2023/06/23 01:55:07;;;;;;;6.93;6.43;;;21.50;99.90;;;;;;5046328;28;20420;-60
2023/06/23 01:57:36;;;;;;;7.70;7.20;;;21.40;99.90;;;;;;5052852;28;20561;-60
2023/06/23 02:00:05;;;;;;;7.30;6.80;;;21.40;99.90;;;;;;5033179;28;20512;-60
2023/06/23 02:02:32;;;;;;;7.50;6.90;;;21.40;99.90;;;;;;5015574;28;20464;-60
2023/06/23 02:04:58;;;;;;;7.70;7.13;;;21.30;99.90;;;;;;5045361;28;20428;-60
2023/06/23 02:07:26;;;;;;;7.30;6.80;;;21.20;99.90;;;;;;5052473;28;20450;-60
2023/06/23 02:09:53;;;;;;;7.63;7.03;;;21.10;99.90;;;;;;5052024;28;20415;-60
2023/06/23 02:12:20;;;;;;;7.43;6.87;;;21.00;99.90;;;;;;5052361;28;20934;-60
2023/06/23 02:14:47;;;;;;;7.50;7.00;;;21.00;99.90;;;;;;5045744;28;20907;-60
2023/06/23 02:17:13;;;;;;;8.50;7.80;;;20.90;99.90;;;;;;5034489;28;20799;-60
2023/06/23 02:19:45;;;;;;;8.20;7.70;;;20.80;99.90;;;;;;5051688;28;20428;-60
2023/06/23 02:22:15;;;;;;;9.47;8.77;;;20.70;99.90;;;;;;5051294;28;20522;-60
2023/06/23 02:24:42;;;;;;;9.43;8.80;;;20.60;99.90;;;;;;5033270;28;20456;-61
2023/06/23 02:27:08;;;;;;;9.93;9.13;;;20.60;99.90;;;;;;5032752;28;20432;-60
2023/06/23 02:29:35;;;;;;;10.83;10.13;;;20.60;99.90;;;;;;5047932;28;20420;-60
2023/06/23 02:32:02;;;;;;;9.50;8.80;;;20.60;99.90;;;;;;5051225;28;20424;-60
2023/06/23 02:34:29;;;;;;;10.17;9.43;;;20.60;99.90;;;;;;5023977;28;20519;-60
2023/06/23 02:37:01;;;;;;;9.30;8.60;;;20.70;99.90;;;;;;5045884;28;20908;-61
2023/06/23 02:39:32;;;;;;;8.00;7.50;;;20.80;99.90;;;;;;5051972;28;20467;-61
2023/06/23 02:42:00;;;;;;;8.47;7.87;;;20.90;99.90;;;;;;5052600;28;20531;-60
2023/06/23 02:44:32;;;;;;;9.20;8.60;;;21.00;99.90;;;;;;5050578;28;20439;-60
2023/06/23 02:47:00;;;;;;;9.73;9.03;;;21.00;99.90;;;;;;5051737;28;20424;-60
2023/06/23 02:49:28;;;;;;;10.07;9.20;;;21.10;99.90;;;;;;5051705;28;20436;-60
2023/06/23 02:51:59;;;;;;;10.27;9.47;;;21.00;99.90;;;;;;5037309;28;20429;-60
2023/06/23 02:54:31;;;;;;;10.63;9.87;;;21.00;99.90;;;;;;5038068;28;20786;-60
2023/06/23 02:56:59;;;;;;;11.10;10.40;;;21.00;99.90;;;;;;5041325;28;20948;-60
2023/06/23 02:59:26;;;;;;;12.27;11.37;;;21.00;99.90;;;;;;5051916;28;20400;-60
2023/06/23 03:01:55;;;;;;;12.83;11.93;;;21.00;99.90;;;;;;5032196;28;20775;-60
2023/06/23 03:04:22;;;;;;;12.50;11.50;;;21.00;99.90;;;;;;5046640;28;20432;-60
2023/06/23 03:06:48;;;;;;;12.50;11.60;;;21.10;99.90;;;;;;5051621;28;20439;-60
2023/06/23 03:09:13;;;;;;;14.47;13.30;;;21.10;99.90;;;;;;5050498;28;20407;-60
2023/06/23 03:11:39;;;;;;;14.13;12.70;;;21.00;99.90;;;;;;5036739;28;20178;-61
2023/06/23 03:14:05;;;;;;;13.67;12.67;;;21.00;99.90;;;;;;5032056;28;20170;-60
2023/06/23 03:16:38;;;;;;;14.67;13.60;;;21.00;99.90;;;;;;5047753;28;20181;-60
2023/06/23 03:19:17;;;;;;;14.83;13.73;;;21.00;99.90;;;;;;5052184;28;20763;-60
2023/06/23 03:21:48;;;;;;;13.90;12.90;;;21.00;99.90;;;;;;5052914;28;20387;-61
2023/06/23 03:24:15;;;;;;;15.20;14.10;;;21.00;99.90;;;;;;5045496;28;20499;-60
2023/06/23 03:26:47;;;;;;;13.37;12.47;;;21.00;99.90;;;;;;5032582;28;20398;-60
2023/06/23 03:29:14;;;;;;;12.80;11.90;;;20.90;99.90;;;;;;5031781;28;20764;-60
2023/06/23 03:31:44;;;;;;;14.30;13.00;;;21.00;99.90;;;;;;5032249;28;20413;-60
2023/06/23 03:34:10;;;;;;;14.60;13.43;;;21.00;99.90;;;;;;5031388;28;20413;-60
2023/06/23 03:36:38;;;;;;;15.30;14.10;;;21.00;99.90;;;;;;5014570;28;20488;-60
2023/06/23 03:39:27;;;;;;;14.77;13.73;;;21.00;99.90;;;;;;5049384;28;20928;-60
2023/06/23 03:41:53;;;;;;;14.23;13.20;;;21.00;99.90;;;;;;5032431;28;20512;-60
2023/06/23 03:44:19;;;;;;;13.20;12.30;;;21.00;99.90;;;;;;5035866;28;20405;-60
2023/06/23 03:46:50;;;;;;;13.60;12.67;;;21.00;99.90;;;;;;5036101;28;20408;-60
2023/06/23 03:49:18;;;;;;;15.47;14.23;;;21.00;99.90;;;;;;5035846;28;20194;-61
2023/06/23 03:51:47;;;;;;;14.07;13.07;;;21.00;99.90;;;;;;5035679;28;20413;-61
2023/06/23 03:54:15;;;;;;;14.00;12.90;;;20.90;99.90;;;;;;5035588;28;20415;-60
2023/06/23 03:56:43;;;;;;;14.83;13.67;;;20.80;99.90;;;;;;5036440;28;20400;-61
2023/06/23 03:59:11;;;;;;;14.00;12.90;;;20.80;99.90;;;;;;5034992;28;20976;-60
2023/06/23 04:01:41;;;;;;;14.87;13.77;;;20.70;99.90;;;;;;5036082;28;20389;-61
2023/06/23 04:04:10;;;;;;;16.03;14.60;;;20.70;99.90;;;;;;5035029;28;20436;-59
2023/06/23 04:06:37;;;;;;;15.43;14.23;;;20.70;99.90;;;;;;5042158;28;20852;-58
2023/06/23 04:09:05;;;;;;;16.57;15.20;;;20.70;99.90;;;;;;5035386;28;20413;-59
2023/06/23 04:11:31;;;;;;;16.30;15.00;;;20.60;99.90;;;;;;5034580;28;20519;-59
2023/06/23 04:13:59;;;;;;;17.33;15.93;;;20.50;99.90;;;;;;5035210;28;20413;-59
2023/06/23 04:16:26;;;;;;;19.03;17.43;;;20.50;99.90;;;;;;5034675;28;20492;-59
2023/06/23 04:18:54;;;;;;;20.27;18.47;;;20.40;99.90;;;;;;5035414;28;20425;-59
2023/06/23 04:21:22;;;;;;;19.80;18.20;;;20.40;99.90;;;;;;5034333;28;20416;-59
2023/06/23 04:23:49;;;;;;;21.87;19.97;;;20.40;99.90;;;;;;5035274;28;20444;-59
2023/06/23 04:26:15;;;;;;;22.47;20.37;;;20.40;99.90;;;;;;5034355;28;20425;-59
2023/06/23 04:28:43;;;;;;;22.53;20.53;;;20.40;99.90;;;;;;5035210;28;20405;-59
2023/06/23 04:31:10;;;;;;;21.10;19.30;;;20.40;99.90;;;;;;5034098;28;20917;-59
2023/06/23 04:33:37;;;;;;;23.03;20.90;;;20.40;99.90;;;;;;5034686;28;20421;-59
2023/06/23 04:36:20;;;;;;;23.50;21.10;;;20.50;99.90;;;;;;5035099;28;20401;-59
2023/06/23 04:38:56;;;;;;;23.57;21.30;;;20.50;99.90;;;;;;5034345;28;20506;-59
2023/06/23 04:41:24;;;;;;;23.97;21.70;;;20.50;99.90;;;;;;5050507;28;20505;-59
2023/06/23 04:43:53;;;;;;;24.87;22.77;;;20.50;99.90;;;;;;5054821;28;20452;-59
2023/06/23 04:46:31;;;;;;;24.33;22.20;;;20.50;99.90;;;;;;5052628;28;20425;-59
2023/06/23 04:49:02;;;;;;;26.57;24.07;;;20.50;99.90;;;;;;5055029;28;20483;-59
2023/06/23 04:51:32;;;;;;;24.07;22.00;;;20.50;99.90;;;;;;5042233;28;20417;-59
2023/06/23 04:54:14;;;;;;;25.73;23.33;;;20.50;99.90;;;;;;5033731;28;20741;-59
2023/06/23 04:56:45;;;;;;;24.60;22.60;;;20.40;99.90;;;;;;5036633;28;20405;-59
2023/06/23 04:59:13;;;;;;;25.10;23.00;;;20.40;99.90;;;;;;5033785;28;20436;-60
2023/06/23 05:01:42;;;;;;;25.20;22.93;;;20.40;99.90;;;;;;5036943;28;20449;-62
2023/06/23 05:04:10;;;;;;;23.53;20.37;;;20.60;99.90;;;;;;5045408;28;20447;-61
2023/06/23 05:06:37;;;;;;;22.70;20.70;;;20.90;99.90;;;;;;5050231;28;20432;-62
2023/06/23 05:09:04;;;;;;;21.33;19.30;;;21.30;99.90;;;;;;5053229;28;20437;-62
2023/06/23 05:11:32;;;;;;;20.07;18.27;;;21.70;99.90;;;;;;5044204;28;20433;-61
2023/06/23 05:13:59;;;;;;;22.03;20.03;;;21.90;99.90;;;;;;5046211;28;20826;-62
2023/06/23 05:16:25;;;;;;;19.30;17.63;;;22.10;99.90;;;;;;5053065;28;20753;-62
2023/06/23 05:18:53;;;;;;;19.20;17.57;;;22.30;99.90;;;;;;5045540;28;20455;-61
2023/06/23 05:21:22;;;;;;;19.73;18.07;;;22.50;99.90;;;;;;5034083;28;20389;-61
2023/06/23 05:23:51;;;;;;;22.00;19.87;;;22.70;99.90;;;;;;5036304;28;20908;-62
2023/06/23 05:26:18;;;;;;;19.30;17.70;;;22.80;99.90;;;;;;5033899;28;20432;-62
2023/06/23 05:28:46;;;;;;;20.70;18.90;;;22.90;99.90;;;;;;5034465;28;20390;-61
2023/06/23 05:31:14;;;;;;;18.37;16.87;;;23.00;99.90;;;;;;5036340;28;20825;-61
2023/06/23 05:33:42;;;;;;;19.20;17.60;;;23.10;99.90;;;;;;5034594;28;20891;-62
2023/06/23 05:36:11;;;;;;;19.17;17.60;;;23.20;99.90;;;;;;5049430;28;20432;-61
2023/06/23 05:38:42;;;;;;;17.83;16.43;;;23.30;99.90;;;;;;5053648;28;20543;-62
2023/06/23 05:41:08;;;;;;;16.77;15.47;;;23.30;99.90;;;;;;5040221;28;20437;-62
2023/06/23 05:43:34;;;;;;;18.80;17.23;;;23.40;99.90;;;;;;5036359;28;20457;-62
2023/06/23 05:46:05;;;;;;;17.47;16.07;;;23.50;99.90;;;;;;5043908;28;20408;-62
2023/06/23 05:48:45;;;;;;;18.87;17.27;;;23.50;99.90;;;;;;5050254;28;20162;-62
2023/06/23 05:51:20;;;;;;;18.20;16.50;;;23.60;99.90;;;;;;5033455;28;20822;-62
2023/06/23 05:53:51;;;;;;;16.00;14.90;;;23.60;99.90;;;;;;5033964;28;20503;-62
2023/06/23 05:56:39;;;;;;;16.73;15.47;;;23.70;99.90;;;;;;5047063;28;20841;-62
2023/06/23 05:59:18;;;;;;;16.40;15.00;;;23.80;99.90;;;;;;5034616;28;20960;-61
2023/06/23 06:01:48;;;;;;;16.83;15.43;;;23.80;99.90;;;;;;5035982;28;20869;-62
2023/06/23 06:04:17;;;;;;;16.23;14.77;;;23.70;99.90;;;;;;5033497;28;20433;-62
2023/06/23 06:06:45;;;;;;;16.53;15.23;;;23.80;99.90;;;;;;5034085;28;20413;-63
2023/06/23 06:09:13;;;;;;;18.70;16.70;;;23.80;99.90;;;;;;5035713;28;20456;-62
2023/06/23 06:11:42;;;;;;;17.83;16.27;;;23.80;99.90;;;;;;5045026;28;20432;-63
2023/06/23 06:14:09;;;;;;;19.10;17.47;;;23.60;99.90;;;;;;5053847;28;20400;-63
2023/06/23 06:16:37;;;;;;;19.70;18.00;;;23.30;99.90;;;;;;5052907;28;20408;-63
2023/06/23 06:19:04;;;;;;;20.23;18.63;;;23.00;99.90;;;;;;5053694;28;20436;-61
2023/06/23 06:21:32;;;;;;;20.80;18.90;;;22.80;99.90;;;;;;5052747;28;20782;-62
2023/06/23 06:23:59;;;;;;;20.50;18.50;;;22.60;99.90;;;;;;5043004;28;20843;-63
2023/06/23 06:26:26;;;;;;;20.73;18.83;;;22.30;99.90;;;;;;5045295;28;20416;-62
2023/06/23 06:28:57;;;;;;;21.00;19.20;;;22.00;99.90;;;;;;5044090;28;20423;-61
2023/06/23 06:31:23;;;;;;;19.40;17.80;;;21.90;99.90;;;;;;5040390;28;20458;-61
2023/06/23 06:33:52;;;;;;;16.33;14.80;;;22.00;99.90;;;;;;5042819;28;20424;-62
2023/06/23 06:36:20;;;;;;;18.60;16.93;;;22.20;99.90;;;;;;5038179;28;20413;-61
2023/06/23 06:38:48;;;;;;;20.07;18.47;;;22.40;99.90;;;;;;5053143;28;20849;-61
2023/06/23 06:41:15;;;;;;;19.40;17.80;;;22.50;99.90;;;;;;5045346;28;20405;-61
2023/06/23 06:43:44;;;;;;;19.53;17.80;;;22.70;99.90;;;;;;5032957;28;20473;-61
2023/06/23 06:46:11;;;;;;;20.00;18.20;;;22.70;99.90;;;;;;5045323;28;20426;-61
2023/06/23 06:48:39;;;;;;;19.40;17.67;;;22.80;99.90;;;;;;5041345;28;20425;-61
2023/06/23 06:51:06;;;;;;;17.27;15.80;;;22.80;99.90;;;;;;5044561;28;20413;-62
2023/06/23 06:53:32;;;;;;;18.97;17.30;;;22.80;99.90;;;;;;5034218;28;20912;-56
2023/06/23 06:55:58;;;;;;;19.37;17.77;;;22.80;99.90;;;;;;5032427;28;20876;-48
2023/06/23 06:58:24;;;;;;;19.10;17.40;;;22.70;99.90;;;;;;5034854;28;20412;-52
2023/06/23 07:00:51;;;;;;;19.53;17.87;;;22.60;99.90;;;;;;5044036;28;20434;-49
2023/06/23 07:03:17;;;;;;;19.10;17.50;;;22.50;99.90;;;;;;5032335;28;20449;-60
2023/06/23 07:05:44;;;;;;;17.87;16.47;;;22.30;99.90;;;;;;5040199;28;20413;-50
2023/06/23 07:08:10;;;;;;;17.93;16.53;;;22.30;99.90;;;;;;5036165;28;20405;-54
2023/06/23 07:10:36;;;;;;;19.13;17.43;;;22.20;99.90;;;;;;5045003;28;20879;-52
2023/06/23 07:13:03;;;;;;;17.70;16.23;;;22.10;99.90;;;;;;5033922;28;20433;-57
2023/06/23 07:15:29;;;;;;;17.53;16.13;;;22.00;99.90;;;;;;5038124;28;20470;-54
2023/06/23 07:17:55;;;;;;;17.20;15.70;;;21.80;99.90;;;;;;5047478;28;20416;-56
2023/06/23 07:20:21;;;;;;;16.30;15.10;;;21.70;99.90;;;;;;5043893;28;20930;-53
2023/06/23 07:22:47;;;;;;;16.30;14.87;;;21.70;99.90;;;;;;5042205;28;20251;-53
2023/06/23 07:25:13;;;;;;;15.60;14.20;;;21.60;99.90;;;;;;5033663;28;20508;-54
2023/06/23 07:27:39;;;;;;;15.73;14.50;;;21.60;99.90;;;;;;5023002;28;20174;-54
2023/06/23 07:30:05;;;;;;;13.77;12.67;;;21.60;99.90;;;;;;5032831;28;20401;-52
2023/06/23 07:32:31;;;;;;;15.27;13.97;;;21.60;99.90;;;;;;5046234;28;20174;-54
2023/06/23 07:34:57;;;;;;;14.20;13.07;;;21.60;99.90;;;;;;5048332;28;20420;-54
2023/06/23 07:37:23;;;;;;;14.30;13.10;;;21.70;99.90;;;;;;5051013;28;20182;-54
2023/06/23 07:39:48;;;;;;;14.03;12.70;;;21.70;99.90;;;;;;5042477;28;20272;-55
2023/06/23 07:42:14;;;;;;;14.40;13.30;;;21.70;99.90;;;;;;5040308;28;20212;-55
2023/06/23 07:44:40;;;;;;;15.00;13.50;;;21.70;99.90;;;;;;5043387;28;20564;-53
2023/06/23 07:47:12;;;;;;;14.73;13.47;;;21.70;99.90;;;;;;5052066;28;20393;-54
2023/06/23 07:49:38;;;;;;;14.37;13.27;;;21.60;99.90;;;;;;5041127;28;20424;-54
2023/06/23 07:52:04;;;;;;;13.00;11.73;;;21.60;99.90;;;;;;5052090;28;20384;-54
2023/06/23 07:54:31;;;;;;;12.50;11.23;;;21.60;99.90;;;;;;5040724;28;20167;-54
2023/06/23 07:56:57;;;;;;;12.93;11.93;;;21.50;99.90;;;;;;5044861;28;20413;-54
2023/06/23 07:59:26;;;;;;;11.93;11.03;;;21.50;99.90;;;;;;5045341;28;21196;-55
2023/06/23 08:01:53;;;;;;;11.10;10.20;;;21.60;99.90;;;;;;5037791;28;20725;-54
2023/06/23 08:04:19;;;;;;;11.93;10.93;;;21.60;99.90;;;;;;5039038;28;20423;-60
2023/06/23 08:06:44;;;;;;;11.53;10.43;;;21.60;99.90;;;;;;5033532;28;20407;-55
2023/06/23 08:09:10;;;;;;;12.47;11.30;;;21.50;99.90;;;;;;5038756;28;20936;-53
2023/06/23 08:11:38;;;;;;;10.97;9.97;;;21.50;99.90;;;;;;5044811;28;20239;-54
2023/06/23 08:14:04;;;;;;;12.33;11.30;;;21.50;99.90;;;;;;5037764;28;20188;-55
2023/06/23 08:16:30;;;;;;;11.47;10.47;;;21.60;99.90;;;;;;5030486;28;20478;-53
2023/06/23 08:18:56;;;;;;;11.80;10.70;;;21.60;99.90;;;;;;5031371;28;20409;-52
2023/06/23 08:21:21;;;;;;;11.50;10.60;;;21.70;99.90;;;;;;5032441;28;20177;-60
2023/06/23 08:23:48;;;;;;;10.30;9.40;;;21.80;99.90;;;;;;5051286;28;20206;-52
2023/06/23 08:26:15;;;;;;;11.30;9.33;;;21.80;99.90;;;;;;5042056;28;20316;-52
2023/06/23 08:28:40;;;;;;;9.80;8.93;;;21.90;99.90;;;;;;5034650;28;20423;-52
2023/06/23 08:31:06;;;;;;;10.07;9.37;;;21.90;99.90;;;;;;5044956;28;20757;-52
2023/06/23 08:33:35;;;;;;;10.67;9.73;;;22.00;99.90;;;;;;5038055;28;20269;-51
2023/06/23 08:36:01;;;;;;;10.10;9.30;;;22.00;99.90;;;;;;5034952;28;20178;-48
2023/06/23 08:38:27;;;;;;;10.17;9.37;;;22.10;99.90;;;;;;5034135;28;20495;-48
2023/06/23 08:40:54;;;;;;;9.20;8.50;;;22.20;99.90;;;;;;5040473;28;20528;-49
2023/06/23 08:43:25;;;;;;;9.67;8.97;;;22.40;99.90;;;;;;5054859;28;20751;-58
2023/06/23 08:45:55;;;;;;;8.03;7.33;;;22.50;99.90;;;;;;5055346;28;20428;-47
2023/06/23 08:48:26;;;;;;;7.30;6.60;;;22.70;99.90;;;;;;5054513;28;20408;-59
2023/06/23 08:51:01;;;;;;;6.50;6.00;;;22.80;99.90;;;;;;5054756;28;20388;-50
2023/06/23 08:53:26;;;;;;;6.90;6.40;;;22.90;99.90;;;;;;5040476;28;20424;-49
2023/06/23 08:55:54;;;;;;;6.60;6.20;;;23.00;99.90;;;;;;5035108;28;20397;-48
2023/06/23 08:58:22;;;;;;;7.00;6.50;;;23.20;99.90;;;;;;5035036;28;20746;-50
2023/06/23 09:00:51;;;;;;;6.80;6.30;;;23.30;99.90;;;;;;5035123;28;20390;-54
2023/06/23 09:03:18;;;;;;;6.57;6.00;;;23.50;99.90;;;;;;5034857;28;20457;-54
2023/06/23 09:05:43;;;;;;;6.37;5.73;;;23.60;99.90;;;;;;5034352;28;20869;-54
2023/06/23 09:08:10;;;;;;;7.00;6.40;;;23.70;99.90;;;;;;5017249;28;20492;-52
2023/06/23 09:10:36;;;;;;;6.00;5.60;;;23.80;99.90;;;;;;5034618;28;20174;-50
2023/06/23 09:13:07;;;;;;;5.67;5.23;;;23.70;99.90;;;;;;5034957;28;20401;-51
2023/06/23 09:15:34;;;;;;;5.90;5.50;;;23.70;99.90;;;;;;5034466;28;20463;-52
2023/06/23 09:18:02;;;;;;;6.80;6.40;;;23.70;99.90;;;;;;5034710;28;20393;-50
2023/06/23 09:20:29;;;;;;;7.03;6.63;;;23.80;99.90;;;;;;5037720;28;20434;-50
2023/06/23 09:22:57;;;;;;;6.80;6.20;;;24.00;99.90;;;;;;5054444;28;20522;-49
2023/06/23 09:25:45;;;;;;;6.53;6.03;;;24.20;99.90;;;;;;5054060;28;20438;-61
2023/06/23 09:28:30;;;;;;;7.67;7.17;;;24.40;99.90;;;;;;5054414;28;20417;-51
2023/06/23 09:30:58;;;;;;;5.97;5.60;;;24.60;99.90;;;;;;5054411;28;20405;-50
2023/06/23 09:33:25;;;;;;;5.90;5.47;;;24.70;99.90;;;;;;5053787;28;20411;-53
2023/06/23 09:35:53;;;;;;;5.40;5.10;;;24.70;99.90;;;;;;5054357;28;20436;-49
2023/06/23 09:38:21;;;;;;;6.20;5.80;;;24.70;98.40;;;;;;5053973;28;20968;-56
2023/06/23 09:40:47;;;;;;;6.03;5.63;;;24.80;98.60;;;;;;5051038;28;20430;-54
2023/06/23 09:43:15;;;;;;;6.70;6.30;;;24.90;99.90;;;;;;5054101;28;20452;-55
2023/06/23 09:45:40;;;;;;;6.50;6.00;;;25.10;99.60;;;;;;5053691;28;20400;-54
2023/06/23 09:48:19;;;;;;;6.50;6.10;;;25.20;97.90;;;;;;5054118;28;20399;-55
2023/06/23 09:50:45;;;;;;;5.67;5.37;;;25.20;96.40;;;;;;5053465;28;20400;-53
2023/06/23 09:53:19;;;;;;;6.60;6.10;;;25.10;95.90;;;;;;5053959;28;20454;-54
2023/06/23 09:55:45;;;;;;;6.60;6.10;;;25.10;97.90;;;;;;5053403;28;20405;-53
2023/06/23 09:58:13;;;;;;;6.43;6.03;;;25.20;97.50;;;;;;5053853;28;20409;-50
2023/06/23 10:00:39;;;;;;;7.47;5.80;;;25.30;97.20;;;;;;5053293;28;20637;-54
2023/06/23 10:03:05;;;;;;;6.33;5.80;;;25.40;96.00;;;;;;5053436;28;20537;-53
2023/06/23 10:05:35;;;;;;;7.37;6.80;;;25.50;97.50;;;;;;5053411;28;20491;-55
2023/06/23 10:08:11;;;;;;;6.63;6.23;;;25.60;97.00;;;;;;5035730;28;20169;-54
2023/06/23 10:10:42;;;;;;;6.67;6.27;;;25.70;95.90;;;;;;5051095;28;20437;-55
2023/06/23 10:13:08;;;;;;;6.90;6.40;;;25.80;95.90;;;;;;5051734;28;20975;-53
2023/06/23 10:15:35;;;;;;;6.17;5.77;;;25.90;95.30;;;;;;5052990;28;20400;-54
2023/06/23 10:18:02;;;;;;;5.97;5.57;;;26.00;95.60;;;;;;5053782;28;20466;-54
2023/06/23 10:20:28;;;;;;;6.30;5.80;;;26.20;95.10;;;;;;5052946;28;20523;-55
2023/06/23 10:22:55;;;;;;;6.77;6.27;;;26.20;94.00;;;;;;5053204;28;20444;-55
2023/06/23 10:25:24;;;;;;;6.37;5.97;;;26.30;93.50;;;;;;5053428;28;20405;-55
2023/06/23 10:27:54;;;;;;;7.47;6.87;;;26.50;94.80;;;;;;5052968;28;20400;-55
2023/06/23 10:30:20;;;;;;;6.77;6.27;;;26.60;91.90;;;;;;5053360;28;20534;-55
2023/06/23 10:32:54;;;;;;;6.63;6.23;;;26.70;92.60;;;;;;5053002;28;20682;-52
2023/06/23 10:35:23;;;;;;;7.70;7.20;;;26.80;93.60;;;;;;5053517;28;20407;-56
2023/06/23 10:37:55;;;;;;;7.80;7.20;;;26.90;92.70;;;;;;5052859;28;20435;-54
2023/06/23 10:40:24;;;;;;;7.33;6.83;;;26.90;92.20;;;;;;5053307;28;20479;-55
2023/06/23 10:42:51;;;;;;;7.20;6.80;;;26.90;90.90;;;;;;5051194;28;20448;-54
2023/06/23 10:45:17;;;;;;;7.57;6.70;;;26.90;91.60;;;;;;5052926;28;20404;-50
2023/06/23 10:47:44;;;;;;;6.27;5.87;;;26.80;91.10;;;;;;5052390;28;20400;-53
2023/06/23 10:50:11;;;;;;;7.53;7.03;;;26.80;91.30;;;;;;5053053;28;20173;-54
2023/06/23 10:52:37;;;;;;;6.63;6.17;;;26.70;89.50;;;;;;5052050;28;20409;-54
2023/06/23 10:55:35;;;;;;;6.97;6.47;;;26.70;91.60;;;;;;5052851;28;20790;-55
2023/06/23 10:58:14;;;;;;;6.93;6.47;;;26.80;93.00;;;;;;5052903;28;20172;-54
2023/06/23 11:01:03;;;;;;;7.73;7.23;;;27.00;93.00;;;;;;5052028;28;20733;-52
2023/06/23 11:03:35;;;;;;;7.37;6.87;;;27.10;91.20;;;;;;5051645;28;20464;-53
2023/06/23 11:06:06;;;;;;;8.00;7.50;;;27.20;91.70;;;;;;5052768;28;20474;-54
2023/06/23 11:08:35;;;;;;;6.60;6.20;;;27.30;91.40;;;;;;5049687;28;20978;-55
2023/06/23 11:11:04;;;;;;;9.07;8.47;;;27.40;90.10;;;;;;5052660;28;20517;-55
2023/06/23 11:13:35;;;;;;;7.90;7.40;;;27.30;88.80;;;;;;5034164;28;20409;-56
2023/06/23 11:16:02;;;;;;;8.23;7.63;;;27.30;91.20;;;;;;5052721;28;20412;-55
2023/06/23 11:18:28;;;;;;;8.00;7.50;;;27.10;90.70;;;;;;5052694;28;20487;-54
2023/06/23 11:21:00;;;;;;;7.50;7.10;;;27.10;92.60;;;;;;5051834;28;20487;-55
2023/06/23 11:23:25;;;;;;;7.80;7.30;;;27.00;91.60;;;;;;5052524;28;20628;-55
2023/06/23 11:25:53;;;;;;;10.43;9.63;;;27.10;91.70;;;;;;5051977;28;20479;-55
2023/06/23 11:28:37;;;;;;;7.57;7.07;;;27.20;89.40;;;;;;5052179;28;20194;-53
2023/06/23 11:31:10;;;;;;;8.10;7.60;;;27.30;90.40;;;;;;5052481;28;20793;-53
2023/06/23 11:33:38;;;;;;;7.47;6.87;;;27.40;88.20;;;;;;5034008;28;20886;-54
2023/06/23 11:36:15;;;;;;;7.50;7.10;;;27.40;90.80;;;;;;5052447;28;20400;-55
2023/06/23 11:38:43;;;;;;;8.10;7.60;;;27.40;90.80;;;;;;5049308;28;20947;-55
2023/06/23 11:41:12;;;;;;;7.83;7.33;;;27.40;89.80;;;;;;5034827;28;20757;-53
2023/06/23 11:43:38;;;;;;;7.80;7.30;;;27.50;90.70;;;;;;5033678;28;20486;-55
2023/06/23 11:46:11;;;;;;;7.07;6.67;;;27.50;90.20;;;;;;5034565;28;20753;-54
2023/06/23 11:48:39;;;;;;;7.80;7.20;;;27.60;90.60;;;;;;5051426;28;20895;-53
2023/06/23 11:51:06;;;;;;;7.27;6.80;;;27.80;89.50;;;;;;5052238;28;20726;-54
2023/06/23 11:53:32;;;;;;;7.40;6.67;;;27.80;86.10;;;;;;5051682;28;20498;-57
2023/06/23 11:56:02;;;;;;;7.50;7.00;;;27.80;85.30;;;;;;5052267;28;20747;-55
2023/06/23 11:58:30;;;;;;;8.10;7.50;;;27.70;85.80;;;;;;5052493;28;20405;-54
2023/06/23 12:00:57;;;;;;;7.67;7.00;;;27.50;84.80;;;;;;5051860;28;20415;-55
2023/06/23 12:03:23;;;;;;;7.93;7.33;;;27.50;88.60;;;;;;5052790;28;20809;-54
2023/06/23 12:05:49;;;;;;;6.97;6.37;;;27.50;90.20;;;;;;5055364;28;20411;-54
2023/06/23 12:08:15;;;;;;;6.57;6.10;;;27.50;87.20;;;;;;5054807;28;20420;-53
2023/06/23 12:10:42;;;;;;;6.40;5.83;;;27.60;83.80;;;;;;5055065;28;20173;-52
2023/06/23 12:13:11;;;;;;;6.50;6.10;;;27.70;83.60;;;;;;5055841;28;20884;-51
2023/06/23 12:15:38;;;;;;;10.07;9.30;;;27.80;80.70;;;;;;5055259;28;20396;-53
2023/06/23 12:18:07;;;;;;;6.50;6.10;;;27.90;85.30;;;;;;5055783;28;20392;-55
2023/06/23 12:20:35;;;;;;;7.10;6.70;;;27.90;81.10;;;;;;5055112;28;20392;-60
2023/06/23 12:23:02;;;;;;;6.50;6.10;;;27.80;81.90;;;;;;5055806;28;20452;-55
2023/06/23 12:25:38;;;;;;;6.37;5.90;;;27.80;81.30;;;;;;5055683;28;20413;-54
2023/06/23 12:28:05;;;;;;;5.40;5.10;;;27.80;82.60;;;;;;5056078;28;20404;-53
2023/06/23 12:30:41;;;;;;;6.83;6.30;;;27.80;83.50;;;;;;5055583;28;20399;-55
2023/06/23 12:33:19;;;;;;;5.50;5.20;;;27.90;81.10;;;;;;5055500;28;20412;-55
2023/06/23 12:36:05;;;;;;;7.37;6.97;;;27.80;78.20;;;;;;5054817;28;20396;-62
2023/06/23 12:38:33;;;;;;;7.13;6.50;;;27.70;89.20;;;;;;5049666;28;20424;-61
2023/06/23 12:41:15;;;;;;;6.70;6.30;;;27.60;83.40;;;;;;5050132;28;20935;-63
2023/06/23 12:43:42;;;;;;;6.13;5.77;;;27.70;83.80;;;;;;5046816;28;20463;-61
2023/06/23 12:46:11;;;;;;;6.53;6.13;;;27.60;85.60;;;;;;5055228;28;20416;-61
2023/06/23 12:48:40;;;;;;;6.90;6.47;;;27.70;82.30;;;;;;5038901;28;20885;-61